Time;durP1;ratioP1;P1;durP2;ratioP2;P2;SDS_P1;SDS_P2;PMS_P1;PMS_P2;Temp;Humidity;BMP_temperature;BMP_pressure;BME280_temperature;BME280_humidity;BME280_pressure;Samples;Min_cycle;Max_cycle;Signal;HPM_P1;HPM_P2
2022/08/08 00:02:33;;;;;;;3.83;2.40;;;19.00;1.00;;;;;;5089398;28;20448;-54
2022/08/08 00:05:09;;;;;;;4.63;2.30;;;19.00;1.00;;;;;;5087965;28;20467;-53
2022/08/08 00:08:03;;;;;;;10.80;3.10;;;18.90;1.00;;;;;;5088913;28;20445;-54
2022/08/08 00:10:43;;;;;;;3.00;2.10;;;19.00;1.00;;;;;;5071452;28;20464;-54
2022/08/08 00:13:39;;;;;;;4.17;2.33;;;18.90;1.00;;;;;;5090573;28;20441;-54
2022/08/08 00:16:21;;;;;;;2.57;2.17;;;18.90;1.00;;;;;;5088531;28;20535;-54
2022/08/08 00:19:07;;;;;;;3.57;2.57;;;18.80;1.00;;;;;;5090130;28;20460;-55
2022/08/08 00:21:39;;;;;;;3.70;2.43;;;18.80;1.00;;;;;;5087307;28;20440;-54
2022/08/08 00:24:12;;;;;;;2.50;2.10;;;18.80;1.00;;;;;;5087724;28;20444;-53
2022/08/08 00:26:43;;;;;;;4.77;2.67;;;18.80;1.00;;;;;;5088455;28;20966;-55
2022/08/08 00:29:26;;;;;;;3.77;2.67;;;18.70;1.00;;;;;;5090378;28;20460;-55
2022/08/08 00:31:57;;;;;;;2.70;2.50;;;18.70;1.00;;;;;;5089453;28;20528;-55
2022/08/08 00:37:42;;;;;;;3.60;2.53;;;18.50;1.00;;;;;;5087327;28;20468;-54
2022/08/08 00:40:26;;;;;;;3.80;2.30;;;18.50;1.00;;;;;;5088601;28;20948;-55
2022/08/08 00:42:52;;;;;;;3.20;2.73;;;18.60;1.00;;;;;;5089624;28;20441;-54
2022/08/08 00:45:45;;;;;;;4.63;2.30;;;18.50;1.00;;;;;;5089138;28;20448;-53
2022/08/08 00:48:30;;;;;;;2.90;2.60;;;18.50;1.00;;;;;;5089050;28;20711;-54
2022/08/08 00:51:29;;;;;;;2.70;2.50;;;18.40;1.00;;;;;;5088513;28;20489;-54
2022/08/08 00:54:16;;;;;;;3.03;2.73;;;18.30;1.00;;;;;;5088913;28;20479;-55
2022/08/08 00:57:39;;;;;;;2.67;2.47;;;18.30;1.00;;;;;;5088437;28;20500;-54
2022/08/08 01:00:11;;;;;;;2.80;2.47;;;18.30;1.00;;;;;;5005515;28;20455;-55
2022/08/08 01:03:00;;;;;;;2.60;2.40;;;18.30;1.00;;;;;;5087698;28;20476;-53
2022/08/08 01:06:13;;;;;;;3.57;2.20;;;18.30;1.00;;;;;;5088786;28;20453;-55
2022/08/08 01:09:07;;;;;;;2.67;2.10;;;18.20;1.00;;;;;;5088727;28;20460;-55
2022/08/08 01:11:36;;;;;;;3.20;2.27;;;18.10;1.00;;;;;;5067614;28;21150;-55
2022/08/08 01:14:22;;;;;;;2.47;2.27;;;18.00;1.00;;;;;;5088755;28;20501;-54
2022/08/08 01:17:09;;;;;;;2.57;2.37;;;17.90;1.00;;;;;;5087877;28;20450;-55
2022/08/08 01:20:09;;;;;;;3.13;2.70;;;17.90;1.00;;;;;;5089731;28;20890;-54
2022/08/08 01:22:56;;;;;;;2.80;2.60;;;17.70;1.00;;;;;;5088144;28;20441;-55
2022/08/08 01:25:30;;;;;;;3.47;2.33;;;17.80;1.00;;;;;;5088372;28;20535;-54
2022/08/08 01:28:20;;;;;;;2.80;2.47;;;17.80;1.00;;;;;;5088605;28;20537;-55
2022/08/08 01:31:00;;;;;;;2.30;2.10;;;17.80;1.00;;;;;;5088785;28;20448;-52
2022/08/08 01:33:25;;;;;;;2.90;2.50;;;17.80;1.00;;;;;;5088588;28;20909;-55
2022/08/08 01:36:17;;;;;;;4.77;2.37;;;17.80;1.00;;;;;;5093401;28;20445;-56
2022/08/08 01:39:05;;;;;;;4.93;2.90;;;17.70;1.00;;;;;;5091878;28;20785;-55
2022/08/08 01:41:39;;;;;;;2.80;2.20;;;17.70;1.00;;;;;;5090801;28;20444;-53
2022/08/08 01:44:19;;;;;;;5.17;2.47;;;17.70;1.00;;;;;;5092165;28;20468;-55
2022/08/08 01:47:07;;;;;;;3.10;2.80;;;17.60;1.00;;;;;;5073075;28;20448;-55
2022/08/08 01:50:03;;;;;;;4.30;2.60;;;17.50;1.00;;;;;;5091282;28;20587;-55
2022/08/08 01:52:50;;;;;;;4.10;2.50;;;17.60;1.00;;;;;;5092360;28;21064;-53
2022/08/08 01:55:33;;;;;;;3.10;2.40;;;17.50;1.00;;;;;;5091468;28;20448;-54
2022/08/08 01:58:17;;;;;;;3.83;2.67;;;17.50;1.00;;;;;;5089295;28;20786;-54
2022/08/08 02:01:13;;;;;;;2.40;2.20;;;17.40;1.00;;;;;;5091153;28;20483;-52
2022/08/08 02:03:48;;;;;;;3.40;2.53;;;17.30;1.00;;;;;;5087806;28;20533;-55
2022/08/08 02:06:41;;;;;;;2.63;2.43;;;17.60;1.00;;;;;;5090518;28;20440;-55
2022/08/08 02:09:19;;;;;;;4.50;2.50;;;17.30;1.00;;;;;;5089279;28;20825;-55
2022/08/08 02:11:47;;;;;;;3.57;3.03;;;17.40;1.00;;;;;;5092104;28;20949;-54
2022/08/08 02:14:31;;;;;;;2.97;2.67;;;17.30;1.00;;;;;;5090177;28;20450;-54
2022/08/08 02:17:25;;;;;;;2.70;2.50;;;17.30;1.00;;;;;;5091011;28;20444;-55
2022/08/08 02:19:57;;;;;;;4.40;3.10;;;17.30;1.00;;;;;;5073102;28;20448;-55
2022/08/08 02:22:33;;;;;;;2.77;2.53;;;17.30;1.00;;;;;;5088426;28;20870;-54
2022/08/08 02:25:10;;;;;;;4.00;3.07;;;17.40;1.00;;;;;;5090741;28;20800;-55
2022/08/08 02:28:01;;;;;;;3.53;2.87;;;17.40;1.00;;;;;;5091436;28;21083;-54
2022/08/08 02:30:45;;;;;;;3.10;2.80;;;17.50;1.00;;;;;;5090175;28;20969;-53
2022/08/08 02:33:13;;;;;;;4.87;2.80;;;17.50;1.00;;;;;;5090569;28;20444;-54
2022/08/08 02:36:09;;;;;;;3.50;2.50;;;17.50;1.00;;;;;;5089493;28;20782;-55
2022/08/08 02:39:17;;;;;;;4.57;2.67;;;17.40;1.00;;;;;;5089524;28;20981;-54
2022/08/08 02:42:03;;;;;;;3.33;2.80;;;17.20;1.00;;;;;;5088338;28;20448;-54
2022/08/08 02:44:59;;;;;;;4.00;2.83;;;17.20;1.00;;;;;;5088577;28;20444;-54
2022/08/08 02:47:34;;;;;;;3.00;2.70;;;17.10;1.00;;;;;;5088658;28;20784;-52
2022/08/08 02:50:21;;;;;;;3.53;2.87;;;17.10;1.00;;;;;;5090907;28;20475;-53
2022/08/08 02:53:07;;;;;;;3.83;2.57;;;17.00;1.00;;;;;;5088552;28;20460;-53
2022/08/08 02:56:06;;;;;;;3.80;2.50;;;17.00;1.00;;;;;;5089135;28;20547;-56
2022/08/08 02:59:01;;;;;;;3.07;2.57;;;17.00;1.00;;;;;;5089853;28;21041;-53
2022/08/08 03:01:29;;;;;;;3.20;2.90;;;17.00;1.00;;;;;;5070364;28;20449;-54
2022/08/08 03:04:52;;;;;;;3.47;3.17;;;16.90;1.00;;;;;;5087960;28;20448;-54
2022/08/08 03:07:46;;;;;;;7.90;3.50;;;16.80;1.00;;;;;;5009876;28;20777;-54
2022/08/08 03:10:24;;;;;;;5.50;2.90;;;16.70;1.00;;;;;;5023626;28;21045;-54
2022/08/08 03:13:24;;;;;;;4.47;2.70;;;16.70;1.00;;;;;;5078724;28;20448;-55
2022/08/08 03:16:15;;;;;;;8.40;3.40;;;16.60;1.00;;;;;;5089372;28;20437;-55
2022/08/08 03:18:50;;;;;;;4.60;3.50;;;16.70;1.00;;;;;;5087608;28;20483;-55
2022/08/08 03:21:15;;;;;;;3.07;2.73;;;16.70;1.00;;;;;;5070816;28;21022;-56
2022/08/08 03:23:41;;;;;;;2.77;2.57;;;16.60;1.00;;;;;;5088813;28;20532;-53
2022/08/08 03:26:07;;;;;;;3.10;2.73;;;16.50;1.00;;;;;;5088274;28;20259;-54
2022/08/08 03:28:42;;;;;;;3.43;3.13;;;16.50;1.00;;;;;;5090359;28;20234;-56
2022/08/08 03:33:52;;;;;;;3.00;2.70;;;16.50;1.00;;;;;;5089294;28;20505;-54
2022/08/08 03:36:18;;;;;;;4.10;3.03;;;16.50;1.00;;;;;;5070926;28;20567;-56
2022/08/08 03:38:51;;;;;;;5.60;3.00;;;16.50;1.00;;;;;;5090379;28;20452;-55
2022/08/08 03:41:17;;;;;;;3.73;2.63;;;16.60;1.00;;;;;;5088096;28;20543;-54
2022/08/08 03:43:56;;;;;;;3.40;3.10;;;16.50;1.00;;;;;;5069422;28;20863;-55
2022/08/08 03:46:22;;;;;;;4.00;3.53;;;16.50;1.00;;;;;;5084735;28;20448;-53
2022/08/08 03:48:55;;;;;;;3.37;2.80;;;16.50;1.00;;;;;;5087273;28;20661;-54
2022/08/08 03:51:21;;;;;;;3.20;2.90;;;16.50;1.00;;;;;;5087867;28;20191;-55
2022/08/08 03:53:46;;;;;;;3.40;3.10;;;16.50;1.00;;;;;;5086439;28;20448;-53
2022/08/08 03:56:14;;;;;;;9.40;2.70;;;16.50;1.00;;;;;;5089331;28;20220;-54
2022/08/08 03:58:40;;;;;;;5.23;3.03;;;16.50;1.00;;;;;;5088115;28;20269;-55
2022/08/08 04:01:08;;;;;;;2.90;2.70;;;16.40;1.00;;;;;;5085750;28;20543;-55
2022/08/08 04:03:35;;;;;;;4.10;3.03;;;16.40;1.00;;;;;;5087043;28;20449;-53
2022/08/08 04:06:06;;;;;;;2.60;2.40;;;16.40;1.00;;;;;;5086324;28;20815;-53
2022/08/08 04:08:35;;;;;;;5.40;3.23;;;16.40;1.00;;;;;;5086338;28;22125;-54
2022/08/08 04:11:06;;;;;;;7.07;3.77;;;16.40;1.00;;;;;;5087711;28;20440;-54
2022/08/08 04:13:32;;;;;;;4.53;3.00;;;16.40;1.00;;;;;;5086331;28;20939;-55
2022/08/08 04:15:58;;;;;;;4.77;3.47;;;16.50;1.00;;;;;;5088831;28;20455;-54
2022/08/08 04:18:23;;;;;;;4.70;3.20;;;16.40;1.00;;;;;;5087738;28;20178;-53
2022/08/08 04:20:50;;;;;;;3.20;3.00;;;16.40;1.00;;;;;;5085436;28;20178;-56
2022/08/08 04:23:15;;;;;;;3.53;2.90;;;16.50;1.00;;;;;;5088656;28;20559;-55
2022/08/08 04:25:41;;;;;;;8.63;3.50;;;16.50;1.00;;;;;;5085185;28;20452;-55
2022/08/08 04:28:08;;;;;;;7.40;3.37;;;16.50;1.00;;;;;;5087866;28;20179;-54
2022/08/08 04:30:34;;;;;;;4.37;3.67;;;16.50;1.00;;;;;;5088993;28;20492;-54
2022/08/08 04:33:00;;;;;;;4.33;2.93;;;16.60;1.00;;;;;;5084450;28;20467;-54
2022/08/08 04:35:26;;;;;;;3.50;3.20;;;16.60;1.00;;;;;;5088165;28;20480;-54
2022/08/08 04:37:53;;;;;;;3.87;3.57;;;16.60;1.00;;;;;;5044261;28;20653;-55
2022/08/08 04:40:19;;;;;;;3.90;3.07;;;16.70;1.00;;;;;;5044326;28;20199;-53
2022/08/08 04:42:45;;;;;;;4.77;3.70;;;16.70;1.00;;;;;;5047807;28;20477;-55
2022/08/08 04:45:11;;;;;;;3.50;3.20;;;16.70;1.00;;;;;;5045290;28;21670;-53
2022/08/08 04:47:37;;;;;;;3.77;3.37;;;16.80;1.00;;;;;;5046637;28;20494;-53
2022/08/08 04:50:03;;;;;;;3.40;3.10;;;16.80;1.00;;;;;;5042763;28;20219;-54
2022/08/08 04:52:29;;;;;;;8.27;3.30;;;16.80;1.00;;;;;;5038851;28;20188;-54
2022/08/08 04:54:54;;;;;;;4.00;3.30;;;16.90;1.00;;;;;;5048027;28;20863;-55
2022/08/08 04:57:20;;;;;;;4.20;3.13;;;17.00;1.00;;;;;;5047334;28;20226;-55
2022/08/08 04:59:46;;;;;;;5.30;3.47;;;17.00;1.00;;;;;;5042513;28;20239;-55
2022/08/08 05:02:11;;;;;;;5.47;3.77;;;17.20;1.00;;;;;;5046602;28;20223;-54
2022/08/08 05:04:37;;;;;;;6.77;3.67;;;17.30;1.00;;;;;;5043043;28;20195;-55
2022/08/08 05:07:03;;;;;;;5.47;3.33;;;17.30;1.00;;;;;;5045369;28;20629;-55
2022/08/08 05:09:28;;;;;;;3.70;3.40;;;17.30;1.00;;;;;;5049614;28;20302;-52
2022/08/08 05:11:54;;;;;;;3.70;3.40;;;17.40;1.00;;;;;;5051517;28;20266;-56
2022/08/08 05:14:20;;;;;;;6.13;4.00;;;17.40;1.00;;;;;;5049584;28;20199;-54
2022/08/08 05:16:46;;;;;;;3.90;3.60;;;17.50;1.00;;;;;;5049901;28;20452;-53
2022/08/08 05:19:12;;;;;;;3.90;3.57;;;;;;;;;;5048125;28;20208;-55
2022/08/08 05:21:42;;;;;;;4.00;3.37;;;17.60;1.00;;;;;;5043980;28;20682;-54
2022/08/08 05:24:09;;;;;;;7.70;3.60;;;17.70;1.00;;;;;;5049021;28;20453;-55
2022/08/08 05:26:35;;;;;;;4.90;3.33;;;17.80;1.00;;;;;;5042568;28;20454;-53
2022/08/08 05:29:03;;;;;;;4.00;3.37;;;17.90;1.00;;;;;;5043450;28;20474;-55
2022/08/08 05:31:31;;;;;;;6.13;3.37;;;17.90;1.00;;;;;;5044200;28;20482;-56
2022/08/08 05:33:57;;;;;;;3.47;3.17;;;18.00;1.00;;;;;;5045289;28;20450;-56
2022/08/08 05:36:25;;;;;;;3.57;3.23;;;18.20;1.00;;;;;;5059650;28;21018;-55
2022/08/08 05:38:52;;;;;;;3.50;3.20;;;18.20;1.00;;;;;;5082956;28;20540;-54
2022/08/08 05:41:22;;;;;;;7.80;3.13;;;18.30;1.00;;;;;;5082673;28;20786;-55
2022/08/08 05:43:48;;;;;;;4.17;3.20;;;18.40;1.00;;;;;;5084670;28;20447;-54
2022/08/08 05:46:15;;;;;;;4.00;3.60;;;18.40;1.00;;;;;;5090806;28;20564;-53
2022/08/08 05:48:42;;;;;;;4.30;3.33;;;18.50;1.00;;;;;;5095379;28;21019;-54
2022/08/08 05:51:08;;;;;;;4.57;3.10;;;18.50;1.00;;;;;;5090734;28;20509;-54
2022/08/08 05:53:34;;;;;;;3.60;3.30;;;18.60;1.00;;;;;;5091620;28;20460;-54
2022/08/08 05:56:00;;;;;;;7.27;3.73;;;18.70;1.00;;;;;;5090550;28;20445;-56
2022/08/08 05:58:32;;;;;;;6.60;3.60;;;18.80;1.00;;;;;;5092045;28;20187;-55
2022/08/08 06:01:02;;;;;;;6.10;3.20;;;18.90;1.00;;;;;;5091226;28;20771;-54
2022/08/08 06:03:29;;;;;;;6.67;3.00;;;19.00;1.00;;;;;;5090187;28;20448;-52
2022/08/08 06:05:59;;;;;;;10.33;4.00;;;18.90;1.00;;;;;;5091761;28;20452;-55
2022/08/08 06:08:34;;;;;;;5.30;3.40;;;19.00;1.00;;;;;;5090601;28;20445;-54
2022/08/08 06:11:01;;;;;;;7.77;3.40;;;19.00;1.00;;;;;;5090395;28;20500;-56
2022/08/08 06:13:30;;;;;;;5.57;3.57;;;19.00;1.00;;;;;;5090491;28;20439;-54
2022/08/08 06:15:56;;;;;;;5.63;3.50;;;19.20;1.00;;;;;;5072147;28;20957;-55
2022/08/08 06:18:23;;;;;;;4.97;3.13;;;19.40;1.00;;;;;;5092104;28;20462;-55
2022/08/08 06:20:53;;;;;;;3.40;3.10;;;19.50;1.00;;;;;;5088221;28;20433;-55
2022/08/08 06:23:19;;;;;;;4.27;3.70;;;19.70;1.00;;;;;;5090581;28;20452;-55
2022/08/08 06:25:56;;;;;;;3.77;3.27;;;19.90;1.00;;;;;;5088942;28;20472;-54
2022/08/08 06:28:32;;;;;;;3.83;3.27;;;19.90;1.00;;;;;;5090648;28;20452;-53
2022/08/08 06:31:00;;;;;;;5.60;3.00;;;20.20;1.00;;;;;;5089917;28;20793;-53
2022/08/08 06:33:42;;;;;;;5.57;3.17;;;20.40;1.00;;;;;;5088400;28;20821;-55
2022/08/08 06:36:11;;;;;;;5.93;3.40;;;20.50;1.00;;;;;;5089007;28;20475;-55
2022/08/08 06:38:44;;;;;;;3.87;3.50;;;20.60;1.00;;;;;;5090364;28;20480;-54
2022/08/08 06:41:14;;;;;;;3.70;3.20;;;20.50;1.00;;;;;;5089786;28;20456;-53
2022/08/08 06:43:44;;;;;;;4.40;3.30;;;20.60;1.00;;;;;;5091946;28;20457;-55
2022/08/08 06:46:10;;;;;;;3.00;2.70;;;20.80;1.00;;;;;;5087013;28;20461;-53
2022/08/08 06:48:36;;;;;;;4.27;3.47;;;20.80;1.00;;;;;;5089240;28;20433;-53
2022/08/08 06:51:06;;;;;;;4.00;2.60;;;21.10;1.00;;;;;;5090909;28;20485;-55
2022/08/08 06:53:32;;;;;;;6.70;3.50;;;21.20;1.00;;;;;;5088110;28;20559;-56
2022/08/08 06:55:58;;;;;;;4.77;3.13;;;21.30;1.00;;;;;;5090248;28;20471;-55
2022/08/08 06:58:24;;;;;;;7.47;4.43;;;21.40;1.00;;;;;;5085494;28;22657;-53
2022/08/08 07:00:50;;;;;;;5.20;3.93;;;21.50;1.00;;;;;;5089074;28;20258;-56
2022/08/08 07:03:43;;;;;;;2.90;2.63;;;21.60;1.00;;;;;;5086569;28;20187;-54
2022/08/08 07:06:13;;;;;;;3.83;2.80;;;21.80;1.00;;;;;;5087452;28;20774;-55
2022/08/08 07:08:45;;;;;;;3.80;3.00;;;22.00;1.00;;;;;;5089156;28;20473;-54
2022/08/08 07:11:16;;;;;;;5.60;2.93;;;22.20;1.00;;;;;;5086188;28;21091;-53
2022/08/08 07:13:44;;;;;;;5.57;3.20;;;22.50;1.00;;;;;;5090333;28;20440;-55
2022/08/08 07:16:20;;;;;;;12.43;3.17;;;22.70;1.00;;;;;;5089355;28;20457;-55
2022/08/08 07:19:05;;;;;;;3.50;3.13;;;22.80;1.00;;;;;;5089936;28;20455;-55
2022/08/08 07:21:41;;;;;;;6.07;2.83;;;23.00;1.00;;;;;;5088855;28;20945;-54
2022/08/08 07:24:12;;;;;;;5.70;3.00;;;22.80;1.00;;;;;;5089248;28;20929;-53
2022/08/08 07:26:39;;;;;;;7.50;3.60;;;23.00;1.00;;;;;;5090211;28;20499;-53
2022/08/08 07:29:05;;;;;;;3.93;2.80;;;23.00;1.00;;;;;;5090772;28;20525;-55
2022/08/08 07:31:32;;;;;;;4.20;2.90;;;23.20;1.00;;;;;;5089760;28;20444;-56
2022/08/08 07:33:58;;;;;;;3.70;3.17;;;23.40;1.00;;;;;;5091117;28;20443;-54
2022/08/08 07:36:25;;;;;;;3.30;2.80;;;23.60;1.00;;;;;;5089716;28;20472;-55
2022/08/08 07:38:51;;;;;;;4.27;2.80;;;23.60;1.00;;;;;;5088785;28;20448;-55
2022/08/08 07:41:18;;;;;;;4.90;3.17;;;23.40;1.00;;;;;;5090835;28;20998;-53
2022/08/08 07:43:44;;;;;;;3.70;2.90;;;23.40;1.00;;;;;;5091967;28;20517;-56
2022/08/08 07:46:10;;;;;;;3.60;3.03;;;23.40;1.00;;;;;;5089441;28;20498;-55
2022/08/08 07:48:36;;;;;;;3.93;2.50;;;23.60;1.00;;;;;;5090737;28;20444;-55
2022/08/08 07:51:02;;;;;;;6.23;2.60;;;23.80;1.00;;;;;;5090259;28;20459;-56
2022/08/08 07:54:13;;;;;;;9.23;3.20;;;24.20;1.00;;;;;;5088816;28;20191;-54
2022/08/08 07:56:58;;;;;;;2.50;2.30;;;24.30;1.00;;;;;;5043005;28;20444;-53
2022/08/08 07:59:26;;;;;;;6.37;2.80;;;24.30;1.00;;;;;;5090702;28;20783;-55
2022/08/08 08:01:58;;;;;;;4.93;2.83;;;24.40;1.00;;;;;;5090523;28;20444;-56
2022/08/08 08:04:33;;;;;;;4.73;3.00;;;24.70;1.00;;;;;;5089448;28;21101;-57
2022/08/08 08:06:59;;;;;;;4.50;2.67;;;25.00;1.00;;;;;;5090436;28;20436;-55
2022/08/08 08:09:30;;;;;;;3.90;2.90;;;25.10;1.00;;;;;;5088352;28;20817;-55
2022/08/08 08:11:58;;;;;;;3.83;2.23;;;25.20;1.00;;;;;;5088855;28;21010;-55
2022/08/08 08:14:50;;;;;;;2.47;2.03;;;25.40;1.00;;;;;;5089690;28;20460;-52
2022/08/08 08:17:18;;;;;;;3.30;2.20;;;25.40;1.00;;;;;;5089563;28;21014;-54
2022/08/08 08:19:47;;;;;;;4.67;2.20;;;25.20;1.00;;;;;;5089730;28;20543;-55
2022/08/08 08:22:15;;;;;;;4.43;2.03;;;25.40;1.00;;;;;;5090437;28;20437;-55
2022/08/08 08:24:41;;;;;;;2.50;2.20;;;25.80;1.00;;;;;;5086838;28;20463;-55
2022/08/08 08:27:07;;;;;;;4.53;2.60;;;25.90;1.00;;;;;;5089763;28;20945;-55
2022/08/08 08:29:33;;;;;;;2.27;1.63;;;25.90;1.00;;;;;;5088524;28;20475;-55
2022/08/08 08:31:59;;;;;;;5.43;2.53;;;26.20;1.00;;;;;;5090302;28;20293;-53
2022/08/08 08:34:25;;;;;;;2.30;1.80;;;26.20;1.00;;;;;;5090656;28;20921;-55
2022/08/08 08:36:50;;;;;;;2.50;1.90;;;26.40;1.00;;;;;;5090019;28;20556;-54
2022/08/08 08:39:16;;;;;;;3.70;2.23;;;26.40;1.00;;;;;;5089653;28;20441;-55
2022/08/08 08:41:42;;;;;;;5.73;2.10;;;26.40;1.00;;;;;;5090177;28;20183;-54
2022/08/08 08:44:09;;;;;;;4.10;2.07;;;26.40;1.00;;;;;;5088751;28;20189;-54
2022/08/08 08:46:36;;;;;;;2.47;1.90;;;26.50;1.00;;;;;;5089680;28;20844;-55
2022/08/08 08:49:02;;;;;;;2.23;1.50;;;26.80;1.00;;;;;;5089922;28;20460;-53
2022/08/08 08:51:29;;;;;;;2.83;2.07;;;26.70;1.00;;;;;;5089923;28;20429;-56
2022/08/08 08:53:57;;;;;;;2.10;1.50;;;26.90;1.00;;;;;;5089632;28;20520;-56
2022/08/08 08:56:25;;;;;;;3.30;1.97;;;26.70;1.00;;;;;;5089814;28;20431;-56
2022/08/08 08:58:52;;;;;;;3.23;2.03;;;26.70;1.00;;;;;;5088407;28;20528;-54
2022/08/08 09:01:22;;;;;;;3.83;1.97;;;26.70;1.00;;;;;;5089499;28;20440;-55
2022/08/08 09:03:49;;;;;;;6.90;1.93;;;26.70;1.00;;;;;;5089646;28;20485;-56
2022/08/08 09:06:24;;;;;;;3.10;2.10;;;26.80;1.00;;;;;;5089644;28;20439;-56
2022/08/08 09:09:06;;;;;;;3.70;1.87;;;26.90;1.00;;;;;;5089788;28;20466;-55
2022/08/08 09:11:34;;;;;;;1.93;1.70;;;27.00;1.00;;;;;;5089026;28;20478;-55
2022/08/08 09:14:00;;;;;;;3.37;1.70;;;26.90;1.00;;;;;;5090129;28;20487;-55
2022/08/08 09:16:28;;;;;;;2.53;1.87;;;26.90;1.00;;;;;;5089894;28;20502;-55
2022/08/08 09:18:54;;;;;;;3.33;1.70;;;27.00;1.00;;;;;;5071978;28;20440;-54
2022/08/08 09:21:20;;;;;;;2.63;2.03;;;27.20;1.00;;;;;;5089836;28;20512;-55
2022/08/08 09:23:47;;;;;;;2.20;1.80;;;27.30;1.00;;;;;;5089757;28;20206;-56
2022/08/08 09:26:22;;;;;;;3.10;1.97;;;27.30;1.00;;;;;;5089854;28;20828;-55
2022/08/08 09:28:49;;;;;;;2.33;1.57;;;27.30;1.00;;;;;;5089788;28;20513;-56
2022/08/08 09:31:46;;;;;;;2.33;1.70;;;27.40;1.00;;;;;;5090089;28;20433;-54
2022/08/08 09:34:13;;;;;;;3.03;1.60;;;27.10;1.00;;;;;;5089791;28;20432;-54
2022/08/08 09:36:43;;;;;;;1.53;1.43;;;27.10;1.00;;;;;;5089554;28;20453;-55
2022/08/08 09:39:10;;;;;;;2.70;1.73;;;27.00;1.00;;;;;;5089531;28;21034;-53
2022/08/08 09:41:38;;;;;;;4.10;2.17;;;27.10;1.00;;;;;;5087966;28;20445;-55
2022/08/08 09:44:18;;;;;;;1.97;1.70;;;27.20;1.00;;;;;;5089722;28;20433;-54
2022/08/08 09:46:48;;;;;;;3.90;1.83;;;27.20;1.00;;;;;;5088323;28;20449;-56
2022/08/08 09:49:17;;;;;;;1.97;1.67;;;27.00;1.00;;;;;;5070997;28;20503;-57
2022/08/08 09:51:48;;;;;;;3.90;1.70;;;26.70;1.00;;;;;;5086771;28;20440;-56
2022/08/08 09:54:16;;;;;;;4.20;2.07;;;26.50;1.00;;;;;;5090066;28;20921;-53
2022/08/08 09:56:47;;;;;;;2.20;1.80;;;26.40;1.00;;;;;;5090545;28;20441;-55
2022/08/08 09:59:22;;;;;;;2.40;1.83;;;26.50;1.00;;;;;;5093810;28;20472;-53
2022/08/08 10:01:55;;;;;;;2.57;1.80;;;26.40;1.00;;;;;;5087751;28;20458;-54
2022/08/08 10:04:23;;;;;;;3.10;1.80;;;26.40;1.00;;;;;;5093154;28;20544;-55
2022/08/08 10:06:52;;;;;;;2.67;2.00;;;26.50;1.00;;;;;;5092322;28;20459;-55
2022/08/08 10:09:32;;;;;;;2.07;1.90;;;26.70;1.00;;;;;;5092768;28;20471;-55
2022/08/08 10:12:02;;;;;;;1.97;1.30;;;27.10;1.00;;;;;;5093003;28;20436;-55
2022/08/08 10:14:35;;;;;;;5.90;1.90;;;27.50;1.00;;;;;;5090825;28;20517;-55
2022/08/08 10:17:06;;;;;;;4.03;1.93;;;27.70;1.00;;;;;;5091790;28;20530;-54
2022/08/08 10:19:40;;;;;;;1.73;1.63;;;27.90;1.00;;;;;;5091758;28;20459;-54
2022/08/08 10:22:07;;;;;;;1.83;1.73;;;27.80;1.00;;;;;;5092540;28;20832;-53
2022/08/08 10:24:34;;;;;;;3.30;1.90;;;27.90;1.00;;;;;;5090586;28;20782;-55
2022/08/08 10:27:04;;;;;;;1.60;1.50;;;27.70;1.00;;;;;;5092587;28;20456;-57
2022/08/08 10:29:48;;;;;;;3.57;1.77;;;27.50;1.00;;;;;;5092680;28;20468;-56
2022/08/08 10:32:35;;;;;;;4.53;2.17;;;27.70;1.00;;;;;;5092601;28;20429;-55
2022/08/08 10:35:07;;;;;;;2.43;1.87;;;27.50;1.00;;;;;;5091139;28;20459;-55
2022/08/08 10:37:34;;;;;;;2.43;1.50;;;27.10;1.00;;;;;;5090305;28;20506;-55
2022/08/08 10:40:13;;;;;;;3.13;1.67;;;27.10;1.00;;;;;;5092013;28;20794;-55
2022/08/08 10:42:40;;;;;;;2.23;1.70;;;27.20;1.00;;;;;;5091993;28;20484;-55
2022/08/08 10:45:07;;;;;;;1.97;1.67;;;26.90;1.00;;;;;;5091261;28;20444;-56
2022/08/08 10:47:33;;;;;;;2.37;1.40;;;;;;;;;;5092263;28;20475;-55
2022/08/08 10:50:00;;;;;;;2.43;1.83;;;27.00;1.00;;;;;;5091543;28;20534;-54
2022/08/08 10:52:29;;;;;;;3.00;1.63;;;27.20;1.00;;;;;;5092458;28;20452;-56
2022/08/08 10:55:01;;;;;;;2.83;1.63;;;27.50;1.00;;;;;;5091483;28;20504;-57
2022/08/08 10:57:26;;;;;;;1.90;1.50;;;27.80;1.00;;;;;;5091997;28;20444;-56
2022/08/08 10:59:56;;;;;;;4.53;1.57;;;28.00;1.00;;;;;;5091267;28;20498;-56
2022/08/08 11:02:32;;;;;;;2.10;1.30;;;28.50;1.00;;;;;;5090326;28;20640;-56
2022/08/08 11:05:01;;;;;;;2.57;1.53;;;28.70;1.00;;;;;;5091529;28;20452;-53
2022/08/08 11:07:35;;;;;;;1.80;1.43;;;28.70;1.00;;;;;;5090718;28;20443;-56
2022/08/08 11:10:03;;;;;;;2.27;1.40;;;28.70;1.00;;;;;;5091581;28;20460;-56
2022/08/08 11:12:29;;;;;;;2.60;1.70;;;28.40;1.00;;;;;;5091605;28;20440;-57
2022/08/08 11:14:56;;;;;;;3.40;1.87;;;28.00;1.00;;;;;;5091309;28;20442;-56
2022/08/08 11:17:27;;;;;;;3.83;1.60;;;27.80;1.00;;;;;;5092078;28;20928;-56
2022/08/08 11:19:53;;;;;;;2.70;1.70;;;27.60;1.00;;;;;;5091697;28;20985;-54
2022/08/08 11:22:24;;;;;;;2.43;1.50;;;27.50;1.00;;;;;;5091940;28;20471;-54
2022/08/08 11:24:50;;;;;;;3.33;1.93;;;27.60;1.00;;;;;;5091119;28;20709;-54
2022/08/08 11:27:17;;;;;;;2.30;1.70;;;27.90;1.00;;;;;;5091035;28;20473;-55
2022/08/08 11:29:45;;;;;;;2.27;1.63;;;27.70;1.00;;;;;;5090773;28;20484;-56
2022/08/08 11:32:13;;;;;;;3.90;1.53;;;27.50;1.00;;;;;;5090980;28;20520;-55
2022/08/08 11:34:41;;;;;;;2.00;1.70;;;27.60;1.00;;;;;;5090808;28;21008;-54
2022/08/08 11:37:07;;;;;;;3.10;1.80;;;27.90;1.00;;;;;;5091424;28;20464;-54
2022/08/08 11:39:34;;;;;;;2.03;1.50;;;28.20;1.00;;;;;;5089303;28;20441;-56
2022/08/08 11:42:01;;;;;;;5.00;1.30;;;28.40;1.00;;;;;;5091243;28;20479;-56
2022/08/08 11:44:29;;;;;;;3.53;1.87;;;28.60;1.00;;;;;;5088582;28;20440;-55
2022/08/08 11:46:56;;;;;;;3.63;1.83;;;28.30;1.00;;;;;;5091046;28;20496;-53
2022/08/08 11:49:23;;;;;;;2.83;2.00;;;28.10;1.00;;;;;;5089305;28;20794;-52
2022/08/08 11:51:51;;;;;;;2.40;1.33;;;28.00;1.00;;;;;;5091065;28;20444;-54
2022/08/08 11:54:17;;;;;;;3.43;1.70;;;27.70;1.00;;;;;;5089199;28;20952;-55
2022/08/08 11:56:42;;;;;;;2.23;1.23;;;27.60;1.00;;;;;;5091030;28;20433;-55
2022/08/08 11:59:10;;;;;;;2.17;1.70;;;27.50;1.00;;;;;;5089251;28;20195;-54
2022/08/08 12:01:36;;;;;;;3.67;1.47;;;27.50;1.00;;;;;;5090620;28;20188;-55
2022/08/08 12:04:03;;;;;;;4.43;1.80;;;27.50;1.00;;;;;;5087810;28;20445;-54
2022/08/08 12:06:31;;;;;;;2.63;1.57;;;27.70;1.00;;;;;;5090490;28;20735;-53
2022/08/08 12:09:09;;;;;;;4.33;1.70;;;28.10;1.00;;;;;;5088925;28;20464;-55
2022/08/08 12:11:41;;;;;;;3.40;1.30;;;28.60;1.00;;;;;;5089543;28;20795;-55
2022/08/08 12:14:06;;;;;;;1.63;1.43;;;28.90;1.00;;;;;;5089237;28;20443;-56
2022/08/08 12:16:32;;;;;;;6.40;1.60;;;29.00;1.00;;;;;;5090321;28;20535;-55
2022/08/08 12:19:01;;;;;;;1.80;1.40;;;29.00;1.00;;;;;;5088380;28;20178;-54
2022/08/08 12:21:29;;;;;;;2.33;1.57;;;29.00;1.00;;;;;;5090352;28;20262;-57
2022/08/08 12:24:14;;;;;;;2.33;1.60;;;28.90;1.00;;;;;;5088592;28;20454;-55
2022/08/08 12:26:44;;;;;;;2.93;1.73;;;28.90;1.00;;;;;;5089468;28;20594;-53
2022/08/08 12:29:19;;;;;;;3.23;1.70;;;28.90;1.00;;;;;;5070375;28;20512;-54
2022/08/08 12:31:45;;;;;;;1.97;1.40;;;28.70;1.00;;;;;;5090271;28;21409;-56
2022/08/08 12:34:10;;;;;;;3.63;2.00;;;28.50;1.00;;;;;;5070271;28;20502;-54
2022/08/08 12:36:42;;;;;;;1.70;1.50;;;28.50;1.00;;;;;;5090237;28;20215;-54
2022/08/08 12:39:08;;;;;;;2.50;1.83;;;28.50;1.00;;;;;;5088285;28;20291;-55
2022/08/08 12:41:35;;;;;;;2.23;1.63;;;28.30;1.00;;;;;;5089941;28;20552;-54
2022/08/08 12:44:09;;;;;;;4.40;1.80;;;28.00;1.00;;;;;;5088486;28;20191;-56
2022/08/08 12:46:35;;;;;;;1.93;1.67;;;28.10;1.00;;;;;;5089829;28;20470;-55
2022/08/08 12:49:04;;;;;;;4.10;1.90;;;28.10;1.00;;;;;;5088012;28;20505;-55
2022/08/08 12:51:41;;;;;;;2.20;2.00;;;27.90;1.00;;;;;;5090287;28;20447;-55
2022/08/08 12:54:08;;;;;;;3.30;1.93;;;28.00;1.00;;;;;;5088383;28;20841;-53
2022/08/08 12:56:36;;;;;;;2.20;1.90;;;28.30;1.00;;;;;;5090398;28;20455;-55
2022/08/08 12:59:12;;;;;;;2.50;1.80;;;28.40;1.00;;;;;;5087971;28;20459;-54
2022/08/08 13:01:38;;;;;;;2.23;1.47;;;28.50;1.00;;;;;;5089306;28;20436;-55
2022/08/08 13:04:15;;;;;;;3.03;1.40;;;28.30;1.00;;;;;;5087820;28;20957;-55
2022/08/08 13:07:00;;;;;;;1.73;1.63;;;28.60;1.00;;;;;;5089168;28;20182;-53
2022/08/08 13:09:31;;;;;;;1.80;1.23;;;28.90;1.00;;;;;;5088152;28;20994;-53
2022/08/08 13:11:56;;;;;;;2.67;1.77;;;28.80;1.00;;;;;;5089808;28;20442;-55
2022/08/08 13:14:35;;;;;;;2.70;1.70;;;29.00;1.00;;;;;;5087768;28;20456;-54
2022/08/08 13:17:01;;;;;;;2.03;1.80;;;28.90;1.00;;;;;;5089797;28;20194;-55
2022/08/08 13:19:28;;;;;;;2.20;1.50;;;28.90;1.00;;;;;;5088060;28;20898;-54
2022/08/08 13:21:54;;;;;;;2.77;1.77;;;28.50;1.00;;;;;;5089845;28;20440;-55
2022/08/08 13:24:20;;;;;;;1.87;1.77;;;28.30;1.00;;;;;;5087980;28;20451;-53
2022/08/08 13:26:46;;;;;;;3.93;3.43;;;27.90;1.00;;;;;;5089761;28;20213;-57
2022/08/08 13:29:13;;;;;;;1.97;1.70;;;28.00;1.00;;;;;;5088750;28;20457;-54
2022/08/08 13:31:49;;;;;;;2.30;2.00;;;28.10;1.00;;;;;;5093513;28;20257;-54
2022/08/08 13:34:24;;;;;;;2.60;1.80;;;28.00;1.00;;;;;;5092951;28;20440;-55